sensor_id;sensor_type;location;lat;lon;timestamp;noise_LAeq;noise_LA_min;noise_LA_max;noise_LA01;noise_LA95
81493;Laerm;70900;51.798;10.954;2024-02-28T00:00:56;23.99;22.46;32.69;;
81493;Laerm;70900;51.798;10.954;2024-02-28T00:03:21;25.54;22.10;37.00;;
81493;Laerm;70900;51.798;10.954;2024-02-28T00:05:49;29.54;22.70;45.57;;
81493;Laerm;70900;51.798;10.954;2024-02-28T00:08:14;24.65;22.49;31.21;;
81493;Laerm;70900;51.798;10.954;2024-02-28T00:10:39;23.23;22.12;24.92;;
81493;Laerm;70900;51.798;10.954;2024-02-28T00:13:05;23.31;22.07;31.53;;
81493;Laerm;70900;51.798;10.954;2024-02-28T00:15:30;23.93;22.24;49.19;;
81493;Laerm;70900;51.798;10.954;2024-02-28T00:17:55;24.64;22.47;30.59;;
81493;Laerm;70900;51.798;10.954;2024-02-28T00:20:21;25.05;22.66;33.75;;
81493;Laerm;70900;51.798;10.954;2024-02-28T00:22:46;23.64;22.01;27.27;;
81493;Laerm;70900;51.798;10.954;2024-02-28T00:25:12;24.52;22.14;34.75;;
81493;Laerm;70900;51.798;10.954;2024-02-28T00:27:38;25.14;22.39;34.56;;
81493;Laerm;70900;51.798;10.954;2024-02-28T00:30:04;25.02;22.23;32.07;;
81493;Laerm;70900;51.798;10.954;2024-02-28T00:32:32;23.93;22.26;31.88;;
81493;Laerm;70900;51.798;10.954;2024-02-28T00:34:58;31.72;22.25;52.83;;
81493;Laerm;70900;51.798;10.954;2024-02-28T00:37:23;30.88;22.59;52.13;;
81493;Laerm;70900;51.798;10.954;2024-02-28T00:39:49;23.87;22.24;30.94;;
81493;Laerm;70900;51.798;10.954;2024-02-28T00:42:14;24.26;22.25;30.81;;
81493;Laerm;70900;51.798;10.954;2024-02-28T00:44:40;24.44;22.46;33.23;;
81493;Laerm;70900;51.798;10.954;2024-02-28T00:47:08;24.39;22.35;34.40;;
81493;Laerm;70900;51.798;10.954;2024-02-28T00:49:33;30.33;22.62;45.84;;
81493;Laerm;70900;51.798;10.954;2024-02-28T00:51:58;45.71;22.78;65.07;;
81493;Laerm;70900;51.798;10.954;2024-02-28T00:54:24;24.05;22.27;35.29;;
81493;Laerm;70900;51.798;10.954;2024-02-28T00:56:51;23.45;22.32;29.83;;
81493;Laerm;70900;51.798;10.954;2024-02-28T00:59:16;24.29;22.27;41.46;;
81493;Laerm;70900;51.798;10.954;2024-02-28T01:01:41;30.95;23.84;42.08;;
81493;Laerm;70900;51.798;10.954;2024-02-28T01:04:07;27.54;23.03;36.17;;
81493;Laerm;70900;51.798;10.954;2024-02-28T01:06:33;30.50;23.09;40.97;;
81493;Laerm;70900;51.798;10.954;2024-02-28T01:08:58;25.54;22.29;32.89;;
81493;Laerm;70900;51.798;10.954;2024-02-28T01:11:24;23.84;22.04;30.97;;
81493;Laerm;70900;51.798;10.954;2024-02-28T01:13:49;23.71;22.54;28.94;;
81493;Laerm;70900;51.798;10.954;2024-02-28T01:16:15;37.02;23.31;52.61;;
81493;Laerm;70900;51.798;10.954;2024-02-28T01:18:41;30.28;24.43;40.71;;
81493;Laerm;70900;51.798;10.954;2024-02-28T01:21:07;25.34;22.87;33.06;;
81493;Laerm;70900;51.798;10.954;2024-02-28T01:23:32;24.37;22.40;33.41;;
81493;Laerm;70900;51.798;10.954;2024-02-28T01:25:58;25.59;22.41;32.58;;
81493;Laerm;70900;51.798;10.954;2024-02-28T01:28:23;25.75;23.48;32.18;;
81493;Laerm;70900;51.798;10.954;2024-02-28T01:30:49;24.59;22.76;28.06;;
81493;Laerm;70900;51.798;10.954;2024-02-28T01:33:14;24.46;22.45;30.43;;
81493;Laerm;70900;51.798;10.954;2024-02-28T01:35:40;25.59;22.27;33.31;;
81493;Laerm;70900;51.798;10.954;2024-02-28T01:38:05;25.49;23.20;31.46;;
81493;Laerm;70900;51.798;10.954;2024-02-28T01:40:30;25.24;23.34;32.85;;
81493;Laerm;70900;51.798;10.954;2024-02-28T01:43:01;24.82;22.75;27.93;;
81493;Laerm;70900;51.798;10.954;2024-02-28T01:45:27;24.99;22.64;31.35;;
81493;Laerm;70900;51.798;10.954;2024-02-28T01:47:52;25.63;23.60;29.93;;
81493;Laerm;70900;51.798;10.954;2024-02-28T01:50:18;24.57;22.82;26.71;;
81493;Laerm;70900;51.798;10.954;2024-02-28T01:52:44;25.45;22.96;28.48;;
81493;Laerm;70900;51.798;10.954;2024-02-28T01:55:09;31.35;23.47;44.36;;
81493;Laerm;70900;51.798;10.954;2024-02-28T01:57:34;30.41;24.13;43.76;;
81493;Laerm;70900;51.798;10.954;2024-02-28T02:00:02;25.20;22.95;28.42;;
81493;Laerm;70900;51.798;10.954;2024-02-28T02:02:27;24.63;23.02;32.42;;
81493;Laerm;70900;51.798;10.954;2024-02-28T02:04:53;25.23;23.15;31.31;;
81493;Laerm;70900;51.798;10.954;2024-02-28T02:07:19;24.91;23.14;29.74;;
81493;Laerm;70900;51.798;10.954;2024-02-28T02:09:45;25.90;23.65;35.63;;
81493;Laerm;70900;51.798;10.954;2024-02-28T02:12:11;26.65;23.67;35.30;;
81493;Laerm;70900;51.798;10.954;2024-02-28T02:14:36;24.78;23.13;28.78;;
81493;Laerm;70900;51.798;10.954;2024-02-28T02:17:02;25.00;23.13;30.32;;
81493;Laerm;70900;51.798;10.954;2024-02-28T02:19:27;25.00;22.84;28.27;;
81493;Laerm;70900;51.798;10.954;2024-02-28T02:21:53;27.59;23.24;40.19;;
81493;Laerm;70900;51.798;10.954;2024-02-28T02:24:19;25.76;23.32;29.74;;
81493;Laerm;70900;51.798;10.954;2024-02-28T02:26:44;27.82;23.56;35.66;;
81493;Laerm;70900;51.798;10.954;2024-02-28T02:29:12;25.99;23.64;29.74;;
81493;Laerm;70900;51.798;10.954;2024-02-28T02:31:37;26.14;23.66;30.29;;
81493;Laerm;70900;51.798;10.954;2024-02-28T02:34:02;26.45;23.59;37.60;;
81493;Laerm;70900;51.798;10.954;2024-02-28T02:36:28;26.39;22.59;33.63;;
81493;Laerm;70900;51.798;10.954;2024-02-28T02:38:53;26.37;22.81;33.95;;
81493;Laerm;70900;51.798;10.954;2024-02-28T02:41:18;26.72;23.90;31.79;;
81493;Laerm;70900;51.798;10.954;2024-02-28T02:43:44;25.52;22.83;31.62;;
81493;Laerm;70900;51.798;10.954;2024-02-28T02:46:09;27.90;23.00;38.03;;
81493;Laerm;70900;51.798;10.954;2024-02-28T02:48:35;28.32;24.98;35.52;;
81493;Laerm;70900;51.798;10.954;2024-02-28T02:51:00;26.94;23.05;34.47;;
81493;Laerm;70900;51.798;10.954;2024-02-28T02:53:25;26.00;23.68;33.65;;
81493;Laerm;70900;51.798;10.954;2024-02-28T02:55:51;26.88;23.82;38.48;;
81493;Laerm;70900;51.798;10.954;2024-02-28T02:58:16;26.24;23.75;31.88;;
81493;Laerm;70900;51.798;10.954;2024-02-28T03:00:41;25.91;23.00;35.46;;
81493;Laerm;70900;51.798;10.954;2024-02-28T03:03:07;26.63;23.25;34.01;;
81493;Laerm;70900;51.798;10.954;2024-02-28T03:05:32;29.23;24.06;37.04;;
81493;Laerm;70900;51.798;10.954;2024-02-28T03:07:57;33.06;25.67;40.94;;
81493;Laerm;70900;51.798;10.954;2024-02-28T03:10:23;27.34;23.64;34.90;;
81493;Laerm;70900;51.798;10.954;2024-02-28T03:12:48;27.11;23.79;33.73;;
81493;Laerm;70900;51.798;10.954;2024-02-28T03:15:14;28.37;23.88;41.11;;
81493;Laerm;70900;51.798;10.954;2024-02-28T03:17:39;27.77;24.48;37.06;;
81493;Laerm;70900;51.798;10.954;2024-02-28T03:20:04;27.20;24.34;44.47;;
81493;Laerm;70900;51.798;10.954;2024-02-28T03:22:32;48.64;24.33;64.68;;
81493;Laerm;70900;51.798;10.954;2024-02-28T03:24:57;29.40;25.35;48.95;;
81493;Laerm;70900;51.798;10.954;2024-02-28T03:27:22;30.58;25.75;43.31;;
81493;Laerm;70900;51.798;10.954;2024-02-28T03:29:48;30.39;25.82;39.76;;
81493;Laerm;70900;51.798;10.954;2024-02-28T03:32:13;30.11;26.57;48.16;;
81493;Laerm;70900;51.798;10.954;2024-02-28T03:34:39;36.77;25.70;56.61;;
81493;Laerm;70900;51.798;10.954;2024-02-28T03:37:05;33.80;26.35;51.58;;
81493;Laerm;70900;51.798;10.954;2024-02-28T03:39:30;30.06;25.86;50.59;;
81493;Laerm;70900;51.798;10.954;2024-02-28T03:41:55;32.74;25.36;46.05;;
81493;Laerm;70900;51.798;10.954;2024-02-28T03:44:21;30.23;24.95;48.68;;
81493;Laerm;70900;51.798;10.954;2024-02-28T03:46:47;33.77;25.63;60.22;;
81493;Laerm;70900;51.798;10.954;2024-02-28T03:49:12;29.14;24.27;37.49;;
81493;Laerm;70900;51.798;10.954;2024-02-28T03:51:41;32.37;24.78;51.87;;
81493;Laerm;70900;51.798;10.954;2024-02-28T03:54:06;34.20;28.11;43.18;;
81493;Laerm;70900;51.798;10.954;2024-02-28T03:56:31;30.13;26.58;35.00;;
81493;Laerm;70900;51.798;10.954;2024-02-28T03:58:57;30.27;25.08;53.07;;
81493;Laerm;70900;51.798;10.954;2024-02-28T04:01:22;28.98;25.79;38.00;;
81493;Laerm;70900;51.798;10.954;2024-02-28T04:03:47;33.47;27.18;42.39;;
81493;Laerm;70900;51.798;10.954;2024-02-28T04:06:13;34.39;31.45;46.95;;
81493;Laerm;70900;51.798;10.954;2024-02-28T04:08:40;35.12;32.06;40.47;;
81493;Laerm;70900;51.798;10.954;2024-02-28T04:11:05;43.34;32.51;57.84;;
81493;Laerm;70900;51.798;10.954;2024-02-28T04:13:30;38.24;33.28;60.09;;
81493;Laerm;70900;51.798;10.954;2024-02-28T04:15:56;38.91;32.85;56.76;;
81493;Laerm;70900;51.798;10.954;2024-02-28T04:18:22;50.62;30.75;64.70;;
81493;Laerm;70900;51.798;10.954;2024-02-28T04:20:47;33.98;29.63;53.19;;
81493;Laerm;70900;51.798;10.954;2024-02-28T04:23:12;53.03;32.17;68.29;;
81493;Laerm;70900;51.798;10.954;2024-02-28T04:25:38;35.89;30.54;54.40;;
81493;Laerm;70900;51.798;10.954;2024-02-28T04:28:05;36.64;32.70;50.73;;
81493;Laerm;70900;51.798;10.954;2024-02-28T04:30:31;47.94;32.03;63.42;;
81493;Laerm;70900;51.798;10.954;2024-02-28T04:32:56;36.85;32.30;55.61;;
81493;Laerm;70900;51.798;10.954;2024-02-28T04:35:21;46.58;33.00;60.40;;
81493;Laerm;70900;51.798;10.954;2024-02-28T04:37:47;35.93;32.43;50.50;;
81493;Laerm;70900;51.798;10.954;2024-02-28T04:40:12;51.05;32.20;68.18;;
81493;Laerm;70900;51.798;10.954;2024-02-28T04:42:39;49.32;32.86;64.99;;
81493;Laerm;70900;51.798;10.954;2024-02-28T04:45:04;38.47;31.52;51.95;;
81493;Laerm;70900;51.798;10.954;2024-02-28T04:47:30;34.79;31.96;40.25;;
81493;Laerm;70900;51.798;10.954;2024-02-28T04:49:56;51.18;31.12;69.23;;
81493;Laerm;70900;51.798;10.954;2024-02-28T04:52:21;48.96;31.17;66.45;;
81493;Laerm;70900;51.798;10.954;2024-02-28T04:54:47;53.21;32.00;70.44;;
81493;Laerm;70900;51.798;10.954;2024-02-28T04:57:12;45.02;32.99;57.99;;
81493;Laerm;70900;51.798;10.954;2024-02-28T04:59:38;51.08;33.37;68.19;;
81493;Laerm;70900;51.798;10.954;2024-02-28T05:02:03;44.99;34.58;64.98;;
81493;Laerm;70900;51.798;10.954;2024-02-28T05:04:28;48.05;33.80;69.35;;
81493;Laerm;70900;51.798;10.954;2024-02-28T05:06:54;54.30;39.16;83.55;;
81493;Laerm;70900;51.798;10.954;2024-02-28T05:09:19;46.47;32.15;62.89;;
81493;Laerm;70900;51.798;10.954;2024-02-28T05:11:44;42.21;32.03;59.79;;
81493;Laerm;70900;51.798;10.954;2024-02-28T05:14:10;51.51;33.05;64.79;;
81493;Laerm;70900;51.798;10.954;2024-02-28T05:16:36;54.14;32.82;67.90;;
81493;Laerm;70900;51.798;10.954;2024-02-28T05:19:01;40.88;32.53;53.03;;
81493;Laerm;70900;51.798;10.954;2024-02-28T05:21:26;39.03;33.24;50.11;;
81493;Laerm;70900;51.798;10.954;2024-02-28T05:23:53;50.29;33.19;63.06;;
81493;Laerm;70900;51.798;10.954;2024-02-28T05:26:18;52.22;35.94;63.62;;
81493;Laerm;70900;51.798;10.954;2024-02-28T05:28:43;54.22;34.78;68.30;;
81493;Laerm;70900;51.798;10.954;2024-02-28T05:31:24;49.12;33.49;66.39;;
81493;Laerm;70900;51.798;10.954;2024-02-28T05:33:51;57.10;34.51;69.98;;
81493;Laerm;70900;51.798;10.954;2024-02-28T05:36:16;52.15;34.65;65.32;;
81493;Laerm;70900;51.798;10.954;2024-02-28T05:38:42;52.10;35.45;68.24;;
81493;Laerm;70900;51.798;10.954;2024-02-28T05:41:08;53.22;41.14;71.72;;
81493;Laerm;70900;51.798;10.954;2024-02-28T05:43:33;55.66;36.41;69.49;;
81493;Laerm;70900;51.798;10.954;2024-02-28T05:45:58;51.20;36.09;69.74;;
81493;Laerm;70900;51.798;10.954;2024-02-28T05:48:24;52.35;34.40;67.31;;
81493;Laerm;70900;51.798;10.954;2024-02-28T05:50:49;59.61;35.38;73.82;;
81493;Laerm;70900;51.798;10.954;2024-02-28T05:53:14;56.67;38.26;70.66;;
81493;Laerm;70900;51.798;10.954;2024-02-28T05:55:40;57.29;35.80;73.59;;
81493;Laerm;70900;51.798;10.954;2024-02-28T05:58:05;51.99;35.61;68.37;;
81493;Laerm;70900;51.798;10.954;2024-02-28T06:00:30;58.08;44.36;72.32;;
81493;Laerm;70900;51.798;10.954;2024-02-28T06:02:56;54.07;45.47;68.50;;
81493;Laerm;70900;51.798;10.954;2024-02-28T06:05:21;55.56;45.76;66.14;;
81493;Laerm;70900;51.798;10.954;2024-02-28T06:07:46;58.02;45.65;75.19;;
81493;Laerm;70900;51.798;10.954;2024-02-28T06:10:12;55.70;44.78;69.91;;
81493;Laerm;70900;51.798;10.954;2024-02-28T06:12:37;57.46;39.96;69.38;;
81493;Laerm;70900;51.798;10.954;2024-02-28T06:15:03;50.02;37.04;65.64;;
81493;Laerm;70900;51.798;10.954;2024-02-28T06:17:29;55.93;37.50;66.73;;
81493;Laerm;70900;51.798;10.954;2024-02-28T06:19:54;57.11;37.39;72.31;;
81493;Laerm;70900;51.798;10.954;2024-02-28T06:22:19;61.19;38.63;78.32;;
81493;Laerm;70900;51.798;10.954;2024-02-28T06:24:45;56.06;37.27;68.02;;
81493;Laerm;70900;51.798;10.954;2024-02-28T06:27:10;57.58;37.15;69.37;;
81493;Laerm;70900;51.798;10.954;2024-02-28T06:29:39;54.63;34.90;68.07;;
81493;Laerm;70900;51.798;10.954;2024-02-28T06:32:04;59.83;37.34;76.36;;
81493;Laerm;70900;51.798;10.954;2024-02-28T06:34:30;58.57;40.25;72.26;;
81493;Laerm;70900;51.798;10.954;2024-02-28T06:36:56;57.55;38.41;69.71;;
81493;Laerm;70900;51.798;10.954;2024-02-28T06:39:21;50.56;36.81;69.26;;
81493;Laerm;70900;51.798;10.954;2024-02-28T06:41:46;59.71;39.39;74.12;;
81493;Laerm;70900;51.798;10.954;2024-02-28T06:44:12;55.75;39.33;67.52;;
81493;Laerm;70900;51.798;10.954;2024-02-28T06:46:37;54.93;38.97;67.26;;
81493;Laerm;70900;51.798;10.954;2024-02-28T06:49:02;53.03;38.31;66.12;;
81493;Laerm;70900;51.798;10.954;2024-02-28T06:51:28;54.63;37.90;70.19;;
81493;Laerm;70900;51.798;10.954;2024-02-28T06:53:53;55.25;37.95;68.38;;
81493;Laerm;70900;51.798;10.954;2024-02-28T06:56:19;54.56;37.11;67.95;;
81493;Laerm;70900;51.798;10.954;2024-02-28T06:58:44;59.59;36.82;71.05;;
81493;Laerm;70900;51.798;10.954;2024-02-28T07:01:09;58.46;38.90;70.23;;
81493;Laerm;70900;51.798;10.954;2024-02-28T07:03:35;57.47;34.90;70.28;;
81493;Laerm;70900;51.798;10.954;2024-02-28T07:06:00;49.95;33.89;65.79;;
81493;Laerm;70900;51.798;10.954;2024-02-28T07:08:25;53.08;34.44;65.88;;
81493;Laerm;70900;51.798;10.954;2024-02-28T07:10:51;57.76;35.26;73.73;;
81493;Laerm;70900;51.798;10.954;2024-02-28T07:13:19;53.08;36.20;68.43;;
81493;Laerm;70900;51.798;10.954;2024-02-28T07:15:45;53.09;33.59;64.71;;
81493;Laerm;70900;51.798;10.954;2024-02-28T07:18:10;53.10;35.74;67.74;;
81493;Laerm;70900;51.798;10.954;2024-02-28T07:20:35;55.07;34.20;69.72;;
81493;Laerm;70900;51.798;10.954;2024-02-28T07:23:01;56.62;36.37;67.01;;
81493;Laerm;70900;51.798;10.954;2024-02-28T07:25:26;52.12;36.63;67.84;;
81493;Laerm;70900;51.798;10.954;2024-02-28T07:27:51;57.74;40.39;70.31;;
81493;Laerm;70900;51.798;10.954;2024-02-28T07:30:17;56.17;38.98;72.66;;
81493;Laerm;70900;51.798;10.954;2024-02-28T07:32:42;51.71;37.80;67.14;;
81493;Laerm;70900;51.798;10.954;2024-02-28T07:35:07;55.63;39.03;68.83;;
81493;Laerm;70900;51.798;10.954;2024-02-28T07:37:33;53.46;37.54;65.85;;
81493;Laerm;70900;51.798;10.954;2024-02-28T07:39:58;53.63;40.42;66.01;;
81493;Laerm;70900;51.798;10.954;2024-02-28T07:42:24;54.82;42.44;68.47;;
81493;Laerm;70900;51.798;10.954;2024-02-28T07:44:50;55.29;38.69;68.60;;
81493;Laerm;70900;51.798;10.954;2024-02-28T07:47:19;46.32;35.48;61.45;;
81493;Laerm;70900;51.798;10.954;2024-02-28T07:49:44;55.46;36.42;69.94;;
81493;Laerm;70900;51.798;10.954;2024-02-28T07:52:09;48.17;36.54;63.91;;
81493;Laerm;70900;51.798;10.954;2024-02-28T07:54:35;56.70;41.84;71.28;;
81493;Laerm;70900;51.798;10.954;2024-02-28T07:57:02;57.63;39.59;74.72;;
81493;Laerm;70900;51.798;10.954;2024-02-28T07:59:27;56.19;40.87;68.88;;
81493;Laerm;70900;51.798;10.954;2024-02-28T08:01:52;54.55;40.53;66.94;;
81493;Laerm;70900;51.798;10.954;2024-02-28T08:04:18;47.12;40.48;60.89;;
81493;Laerm;70900;51.798;10.954;2024-02-28T08:06:43;55.74;40.09;69.55;;
81493;Laerm;70900;51.798;10.954;2024-02-28T08:09:08;56.65;41.22;69.22;;
81493;Laerm;70900;51.798;10.954;2024-02-28T08:11:34;51.48;40.47;64.00;;
81493;Laerm;70900;51.798;10.954;2024-02-28T08:13:59;60.74;40.98;76.60;;
81493;Laerm;70900;51.798;10.954;2024-02-28T08:16:25;56.25;40.65;72.66;;
81493;Laerm;70900;51.798;10.954;2024-02-28T08:18:50;58.40;40.15;73.52;;
81493;Laerm;70900;51.798;10.954;2024-02-28T08:21:15;57.52;39.62;75.20;;
81493;Laerm;70900;51.798;10.954;2024-02-28T08:23:41;57.84;41.35;72.83;;
81493;Laerm;70900;51.798;10.954;2024-02-28T08:26:06;63.91;56.63;88.89;;
81493;Laerm;70900;51.798;10.954;2024-02-28T08:28:31;65.50;41.42;80.73;;
81493;Laerm;70900;51.798;10.954;2024-02-28T08:30:58;53.33;40.47;66.51;;
81493;Laerm;70900;51.798;10.954;2024-02-28T08:33:23;56.22;39.62;73.39;;
81493;Laerm;70900;51.798;10.954;2024-02-28T08:35:48;55.85;40.72;69.39;;
81493;Laerm;70900;51.798;10.954;2024-02-28T08:38:15;52.67;41.14;68.03;;
81493;Laerm;70900;51.798;10.954;2024-02-28T08:40:40;57.25;40.05;69.17;;
81493;Laerm;70900;51.798;10.954;2024-02-28T08:43:06;64.19;36.55;80.97;;
81493;Laerm;70900;51.798;10.954;2024-02-28T08:45:31;53.42;35.46;68.84;;
81493;Laerm;70900;51.798;10.954;2024-02-28T08:47:57;55.29;36.02;67.86;;
81493;Laerm;70900;51.798;10.954;2024-02-28T08:50:26;56.70;40.49;67.98;;
81493;Laerm;70900;51.798;10.954;2024-02-28T08:52:51;60.79;40.09;73.18;;
81493;Laerm;70900;51.798;10.954;2024-02-28T08:55:17;43.89;34.40;61.37;;
81493;Laerm;70900;51.798;10.954;2024-02-28T08:57:44;55.79;36.68;70.05;;
81493;Laerm;70900;51.798;10.954;2024-02-28T09:00:09;58.49;39.68;69.92;;
81493;Laerm;70900;51.798;10.954;2024-02-28T09:02:35;62.70;36.25;81.99;;
81493;Laerm;70900;51.798;10.954;2024-02-28T09:05:02;58.92;37.96;67.31;;
81493;Laerm;70900;51.798;10.954;2024-02-28T09:07:28;55.13;35.35;66.78;;
81493;Laerm;70900;51.798;10.954;2024-02-28T09:09:54;51.98;35.85;66.39;;
81493;Laerm;70900;51.798;10.954;2024-02-28T09:12:19;55.20;35.14;72.05;;
81493;Laerm;70900;51.798;10.954;2024-02-28T09:14:44;58.62;40.85;71.00;;
81493;Laerm;70900;51.798;10.954;2024-02-28T09:17:11;55.69;36.32;70.60;;
81493;Laerm;70900;51.798;10.954;2024-02-28T09:19:36;53.06;36.10;67.25;;
81493;Laerm;70900;51.798;10.954;2024-02-28T09:22:01;57.47;36.99;69.30;;
81493;Laerm;70900;51.798;10.954;2024-02-28T09:24:27;57.04;38.77;72.86;;
81493;Laerm;70900;51.798;10.954;2024-02-28T09:26:52;54.77;39.46;67.90;;
81493;Laerm;70900;51.798;10.954;2024-02-28T09:29:17;53.43;41.41;67.28;;
81493;Laerm;70900;51.798;10.954;2024-02-28T09:31:43;58.48;36.77;71.04;;
81493;Laerm;70900;51.798;10.954;2024-02-28T09:34:08;60.43;38.17;77.71;;
81493;Laerm;70900;51.798;10.954;2024-02-28T09:36:44;65.06;43.08;81.65;;
81493;Laerm;70900;51.798;10.954;2024-02-28T09:39:13;63.00;47.72;74.27;;
81493;Laerm;70900;51.798;10.954;2024-02-28T09:41:40;60.07;37.53;74.78;;
81493;Laerm;70900;51.798;10.954;2024-02-28T09:44:06;55.69;38.48;70.11;;
81493;Laerm;70900;51.798;10.954;2024-02-28T09:46:31;52.63;39.53;64.65;;
81493;Laerm;70900;51.798;10.954;2024-02-28T09:48:59;63.73;38.81;80.94;;
81493;Laerm;70900;51.798;10.954;2024-02-28T09:51:26;57.10;36.37;67.50;;
81493;Laerm;70900;51.798;10.954;2024-02-28T09:53:52;57.12;37.95;67.64;;
81493;Laerm;70900;51.798;10.954;2024-02-28T09:56:18;53.01;37.57;68.07;;
81493;Laerm;70900;51.798;10.954;2024-02-28T09:58:44;53.60;34.56;65.77;;
81493;Laerm;70900;51.798;10.954;2024-02-28T10:01:11;57.34;37.51;68.39;;
81493;Laerm;70900;51.798;10.954;2024-02-28T10:03:37;54.48;35.22;65.97;;
81493;Laerm;70900;51.798;10.954;2024-02-28T10:06:03;61.86;36.82;81.02;;
81493;Laerm;70900;51.798;10.954;2024-02-28T10:08:28;52.49;36.99;64.36;;
81493;Laerm;70900;51.798;10.954;2024-02-28T10:10:54;57.68;37.07;70.64;;
81493;Laerm;70900;51.798;10.954;2024-02-28T10:13:21;52.78;34.74;66.58;;
81493;Laerm;70900;51.798;10.954;2024-02-28T10:15:47;56.01;35.84;68.04;;
81493;Laerm;70900;51.798;10.954;2024-02-28T10:18:13;50.95;37.56;63.34;;
81493;Laerm;70900;51.798;10.954;2024-02-28T10:20:38;54.81;36.25;69.59;;
81493;Laerm;70900;51.798;10.954;2024-02-28T10:23:06;57.80;36.72;76.39;;
81493;Laerm;70900;51.798;10.954;2024-02-28T10:25:41;56.83;39.21;72.98;;
81493;Laerm;70900;51.798;10.954;2024-02-28T10:28:06;60.90;40.66;76.38;;
81493;Laerm;70900;51.798;10.954;2024-02-28T10:30:32;56.31;38.70;71.19;;
81493;Laerm;70900;51.798;10.954;2024-02-28T10:32:57;55.67;39.93;67.80;;
81493;Laerm;70900;51.798;10.954;2024-02-28T10:35:22;61.20;42.07;77.30;;
81493;Laerm;70900;51.798;10.954;2024-02-28T10:37:52;54.14;38.90;70.05;;
81493;Laerm;70900;51.798;10.954;2024-02-28T10:40:18;56.38;38.26;68.48;;
81493;Laerm;70900;51.798;10.954;2024-02-28T10:42:44;56.08;40.63;70.95;;
81493;Laerm;70900;51.798;10.954;2024-02-28T10:45:10;61.00;41.66;81.63;;
81493;Laerm;70900;51.798;10.954;2024-02-28T10:47:37;59.65;39.15;79.04;;
81493;Laerm;70900;51.798;10.954;2024-02-28T10:50:03;53.00;38.33;67.48;;
81493;Laerm;70900;51.798;10.954;2024-02-28T10:52:29;51.19;38.59;64.48;;
81493;Laerm;70900;51.798;10.954;2024-02-28T10:54:58;56.07;40.77;68.02;;
81493;Laerm;70900;51.798;10.954;2024-02-28T10:57:25;54.89;36.05;74.08;;
81493;Laerm;70900;51.798;10.954;2024-02-28T10:59:51;51.80;37.27;65.37;;
81493;Laerm;70900;51.798;10.954;2024-02-28T11:02:17;55.85;35.55;70.43;;
81493;Laerm;70900;51.798;10.954;2024-02-28T11:04:42;59.46;35.64;73.73;;
81493;Laerm;70900;51.798;10.954;2024-02-28T11:07:08;53.70;36.60;66.63;;
81493;Laerm;70900;51.798;10.954;2024-02-28T11:09:33;47.62;36.05;64.86;;
81493;Laerm;70900;51.798;10.954;2024-02-28T11:11:59;59.90;36.18;79.55;;
81493;Laerm;70900;51.798;10.954;2024-02-28T11:14:24;63.87;38.23;81.70;;
81493;Laerm;70900;51.798;10.954;2024-02-28T11:17:01;51.08;36.37;65.68;;
81493;Laerm;70900;51.798;10.954;2024-02-28T11:19:27;56.89;37.33;68.52;;
81493;Laerm;70900;51.798;10.954;2024-02-28T11:21:53;55.81;39.15;68.99;;
81493;Laerm;70900;51.798;10.954;2024-02-28T11:24:23;52.57;35.84;67.51;;
81493;Laerm;70900;51.798;10.954;2024-02-28T11:26:49;57.17;38.32;68.52;;
81493;Laerm;70900;51.798;10.954;2024-02-28T11:29:16;56.52;35.59;70.01;;
81493;Laerm;70900;51.798;10.954;2024-02-28T11:31:41;43.39;36.04;58.67;;
81493;Laerm;70900;51.798;10.954;2024-02-28T11:34:06;60.24;37.22;74.76;;
81493;Laerm;70900;51.798;10.954;2024-02-28T11:36:32;55.32;36.27;68.38;;
81493;Laerm;70900;51.798;10.954;2024-02-28T11:38:57;57.18;36.44;68.73;;
81493;Laerm;70900;51.798;10.954;2024-02-28T11:41:26;61.84;39.62;80.47;;
81493;Laerm;70900;51.798;10.954;2024-02-28T11:43:54;56.16;36.83;73.91;;
81493;Laerm;70900;51.798;10.954;2024-02-28T11:46:20;56.45;35.99;69.71;;
81493;Laerm;70900;51.798;10.954;2024-02-28T11:48:45;51.19;36.33;63.98;;
81493;Laerm;70900;51.798;10.954;2024-02-28T11:51:11;57.86;36.46;69.27;;
81493;Laerm;70900;51.798;10.954;2024-02-28T11:53:36;54.37;36.01;69.95;;
81493;Laerm;70900;51.798;10.954;2024-02-28T11:56:01;51.62;37.47;65.34;;
81493;Laerm;70900;51.798;10.954;2024-02-28T11:58:28;54.74;38.63;69.01;;
81493;Laerm;70900;51.798;10.954;2024-02-28T12:00:54;51.14;38.42;66.01;;
81493;Laerm;70900;51.798;10.954;2024-02-28T12:03:20;54.26;37.44;68.09;;
81493;Laerm;70900;51.798;10.954;2024-02-28T12:05:45;56.40;38.55;69.57;;
81493;Laerm;70900;51.798;10.954;2024-02-28T12:08:11;55.68;37.40;66.04;;
81493;Laerm;70900;51.798;10.954;2024-02-28T12:10:36;53.95;37.86;66.77;;
81493;Laerm;70900;51.798;10.954;2024-02-28T12:13:02;52.68;37.00;66.29;;
81493;Laerm;70900;51.798;10.954;2024-02-28T12:15:28;51.68;36.70;69.36;;
81493;Laerm;70900;51.798;10.954;2024-02-28T12:17:53;61.33;45.56;79.02;;
81493;Laerm;70900;51.798;10.954;2024-02-28T12:20:19;56.87;39.75;67.79;;
81493;Laerm;70900;51.798;10.954;2024-02-28T12:22:45;47.74;37.25;61.09;;
81493;Laerm;70900;51.798;10.954;2024-02-28T12:25:10;53.54;37.27;70.16;;
81493;Laerm;70900;51.798;10.954;2024-02-28T12:27:35;54.80;37.96;65.70;;
81493;Laerm;70900;51.798;10.954;2024-02-28T12:30:01;54.77;38.74;68.46;;
81493;Laerm;70900;51.798;10.954;2024-02-28T12:32:26;50.77;37.68;64.77;;
81493;Laerm;70900;51.798;10.954;2024-02-28T12:34:51;59.05;40.71;71.23;;
81493;Laerm;70900;51.798;10.954;2024-02-28T12:37:17;55.61;38.11;75.04;;
81493;Laerm;70900;51.798;10.954;2024-02-28T12:39:42;55.33;39.20;77.65;;
81493;Laerm;70900;51.798;10.954;2024-02-28T12:42:08;54.84;36.65;68.10;;
81493;Laerm;70900;51.798;10.954;2024-02-28T12:44:33;57.30;36.64;82.01;;
81493;Laerm;70900;51.798;10.954;2024-02-28T12:46:59;55.95;38.17;71.17;;
81493;Laerm;70900;51.798;10.954;2024-02-28T12:49:24;61.67;39.44;78.89;;
81493;Laerm;70900;51.798;10.954;2024-02-28T12:51:49;55.12;39.26;74.82;;
81493;Laerm;70900;51.798;10.954;2024-02-28T12:54:16;58.28;36.92;75.66;;
81493;Laerm;70900;51.798;10.954;2024-02-28T12:56:41;49.89;35.78;65.11;;
81493;Laerm;70900;51.798;10.954;2024-02-28T12:59:10;53.50;36.84;72.61;;
81493;Laerm;70900;51.798;10.954;2024-02-28T13:01:35;52.45;37.60;63.93;;
81493;Laerm;70900;51.798;10.954;2024-02-28T13:04:01;55.75;36.09;69.01;;
81493;Laerm;70900;51.798;10.954;2024-02-28T13:06:27;52.83;36.93;65.35;;
81493;Laerm;70900;51.798;10.954;2024-02-28T13:08:52;55.77;37.49;69.72;;
81493;Laerm;70900;51.798;10.954;2024-02-28T13:11:18;48.98;36.73;64.64;;
81493;Laerm;70900;51.798;10.954;2024-02-28T13:13:45;41.38;35.29;61.42;;
81493;Laerm;70900;51.798;10.954;2024-02-28T13:16:10;53.34;36.50;66.63;;
81493;Laerm;70900;51.798;10.954;2024-02-28T13:18:36;49.04;37.45;62.70;;
81493;Laerm;70900;51.798;10.954;2024-02-28T13:21:01;54.67;38.31;68.71;;
81493;Laerm;70900;51.798;10.954;2024-02-28T13:23:28;57.41;36.71;68.53;;